Time;durP1;ratioP1;P1;durP2;ratioP2;P2;SDS_P1;SDS_P2;PMS_P1;PMS_P2;Temp;Humidity;BMP_temperature;BMP_pressure;BME280_temperature;BME280_humidity;BME280_pressure;Samples;Min_cycle;Max_cycle;Signal;HPM_P1;HPM_P2
2024/05/02 00:02:06;;;;;;;12.07;5.70;;;20.30;99.90;;;;;;5446233;26;20661;-80
2024/05/02 00:04:32;;;;;;;8.87;5.67;;;20.30;99.90;;;;;;5411952;26;20245;-80
2024/05/02 00:06:57;;;;;;;6.57;5.73;;;20.20;99.90;;;;;;5445956;26;20259;-81
2024/05/02 00:09:24;;;;;;;9.90;5.53;;;20.20;99.90;;;;;;5413240;26;20256;-81
2024/05/02 00:11:50;;;;;;;11.83;6.33;;;20.20;99.90;;;;;;5452801;26;20244;-81
2024/05/02 00:14:15;;;;;;;7.37;6.17;;;20.20;99.90;;;;;;5411348;26;20241;-81
2024/05/02 00:16:41;;;;;;;12.03;6.13;;;20.10;99.90;;;;;;5446604;26;20244;-82
2024/05/02 00:19:07;;;;;;;10.00;6.33;;;20.00;99.90;;;;;;5446775;26;20352;-81
2024/05/02 00:21:32;;;;;;;9.13;6.67;;;19.80;99.90;;;;;;5458517;26;20240;-81
2024/05/02 00:23:59;;;;;;;12.73;6.33;;;19.70;99.90;;;;;;5460944;26;20236;-80
2024/05/02 00:26:24;;;;;;;10.27;6.30;;;19.70;99.90;;;;;;5455001;26;20306;-80
2024/05/02 00:28:50;;;;;;;11.70;6.40;;;19.70;99.90;;;;;;5453911;26;20241;-80
2024/05/02 00:31:17;;;;;;;11.53;6.73;;;19.70;99.90;;;;;;5416780;26;20272;-80
2024/05/02 00:33:42;;;;;;;8.20;6.00;;;19.70;99.90;;;;;;5445721;26;20248;-81
2024/05/02 00:36:08;;;;;;;10.67;7.00;;;19.80;99.90;;;;;;5446855;26;20668;-81
2024/05/02 00:38:33;;;;;;;9.80;6.53;;;19.80;99.90;;;;;;5448553;26;20244;-80
2024/05/02 00:40:59;;;;;;;15.07;6.40;;;19.90;99.90;;;;;;5448631;26;20240;-81
2024/05/02 00:43:25;;;;;;;9.27;6.47;;;19.80;99.90;;;;;;5444342;26;20328;-81
2024/05/02 00:45:53;;;;;;;10.60;6.43;;;19.80;99.90;;;;;;5445886;26;20254;-82
2024/05/02 00:48:20;;;;;;;9.87;6.73;;;19.80;99.90;;;;;;5431866;26;20245;-80
2024/05/02 00:50:47;;;;;;;7.77;6.60;;;19.80;99.90;;;;;;5447651;26;20300;-81
2024/05/02 00:53:14;;;;;;;8.17;6.43;;;19.70;99.90;;;;;;5411767;26;20807;-81
2024/05/02 00:55:44;;;;;;;11.30;6.83;;;19.80;99.90;;;;;;5444995;26;20252;-81
2024/05/02 00:58:11;;;;;;;7.23;6.40;;;19.70;99.90;;;;;;5448034;26;20326;-81
2024/05/02 01:00:37;;;;;;;9.83;6.60;;;19.80;99.90;;;;;;5448389;26;20236;-81
2024/05/02 01:03:03;;;;;;;8.37;6.13;;;19.70;99.90;;;;;;5445555;26;20680;-81
2024/05/02 01:05:28;;;;;;;11.30;6.77;;;19.80;99.90;;;;;;5448157;26;20240;-81
2024/05/02 01:07:54;;;;;;;8.60;6.80;;;19.70;99.90;;;;;;5446380;26;20655;-81
2024/05/02 01:10:19;;;;;;;11.50;6.30;;;19.60;99.90;;;;;;5410618;26;20686;-80
2024/05/02 01:12:46;;;;;;;8.07;7.00;;;19.70;99.90;;;;;;5445971;26;20243;-82
2024/05/02 01:15:12;;;;;;;10.43;7.00;;;19.70;99.90;;;;;;5409112;26;20249;-83
2024/05/02 01:17:37;;;;;;;8.83;6.13;;;19.60;99.90;;;;;;5443939;26;20726;-81
2024/05/02 01:20:03;;;;;;;12.63;9.67;;;19.60;99.90;;;;;;5423127;26;20240;-82
2024/05/02 01:22:32;;;;;;;11.77;7.50;;;19.60;99.90;;;;;;5446363;26;20247;-81
2024/05/02 01:24:59;;;;;;;13.83;7.17;;;19.70;99.90;;;;;;5445871;26;20312;-79
2024/05/02 01:27:25;;;;;;;14.97;7.10;;;19.50;99.90;;;;;;5410565;26;20768;-82
2024/05/02 01:29:50;;;;;;;7.70;6.90;;;19.50;99.90;;;;;;5447710;26;20270;-80
2024/05/02 01:32:16;;;;;;;11.00;7.70;;;19.50;99.90;;;;;;5448466;26;20249;-82
2024/05/02 01:34:41;;;;;;;9.50;7.37;;;19.50;99.90;;;;;;5448641;26;20671;-81
2024/05/02 01:37:07;;;;;;;10.03;7.30;;;19.40;99.90;;;;;;5449384;26;20310;-81
2024/05/02 01:39:32;;;;;;;8.70;7.80;;;19.40;99.90;;;;;;5447264;26;20247;-82
2024/05/02 01:41:58;;;;;;;9.07;7.47;;;19.50;99.90;;;;;;5411473;26;20710;-81
2024/05/02 01:44:23;;;;;;;11.10;7.43;;;19.40;99.90;;;;;;5419645;26;20298;-82
2024/05/02 01:46:49;;;;;;;10.87;7.60;;;19.50;99.90;;;;;;5444527;26;20248;-80
2024/05/02 01:49:14;;;;;;;10.53;6.67;;;19.40;99.90;;;;;;5448546;26;20360;-82
2024/05/02 01:51:40;;;;;;;17.90;7.27;;;19.40;99.90;;;;;;5448847;26;20248;-82
2024/05/02 01:54:05;;;;;;;9.13;6.80;;;19.20;99.90;;;;;;5447899;26;20303;-80
2024/05/02 01:56:31;;;;;;;9.97;7.80;;;19.20;99.90;;;;;;5447116;26;20306;-82
2024/05/02 01:58:57;;;;;;;9.10;7.60;;;19.30;99.90;;;;;;5445675;26;20301;-82
2024/05/02 02:01:22;;;;;;;10.13;7.70;;;19.20;99.90;;;;;;5448470;26;20259;-81
2024/05/02 02:03:48;;;;;;;10.90;7.73;;;19.10;99.90;;;;;;5461746;26;20279;-82
2024/05/02 02:06:13;;;;;;;11.33;8.10;;;19.00;99.90;;;;;;5463220;26;20232;-80
2024/05/02 02:08:39;;;;;;;11.47;7.73;;;19.00;99.90;;;;;;5450704;26;20283;-80
2024/05/02 02:11:04;;;;;;;10.20;7.70;;;19.00;99.90;;;;;;5434879;26;20264;-81
2024/05/02 02:13:30;;;;;;;11.57;7.27;;;19.00;99.90;;;;;;5417208;26;20345;-81
2024/05/02 02:15:55;;;;;;;10.10;7.60;;;19.00;99.90;;;;;;5443869;26;20271;-81
2024/05/02 02:18:21;;;;;;;13.60;8.27;;;19.00;99.90;;;;;;5423310;26;20255;-82
2024/05/02 02:20:46;;;;;;;9.20;7.40;;;19.00;99.90;;;;;;5447305;26;20322;-81
2024/05/02 02:23:12;;;;;;;13.90;7.73;;;19.00;99.90;;;;;;5444794;26;20750;-81
2024/05/02 02:25:37;;;;;;;14.07;8.63;;;19.00;99.90;;;;;;5446777;26;20287;-79
2024/05/02 02:28:03;;;;;;;10.27;7.70;;;19.00;99.90;;;;;;5444893;26;20278;-80
2024/05/02 02:30:29;;;;;;;12.53;8.77;;;19.00;99.90;;;;;;5409693;26;20302;-81
2024/05/02 02:32:54;;;;;;;11.90;7.73;;;18.90;99.90;;;;;;5408255;26;20277;-81
2024/05/02 02:35:20;;;;;;;14.70;8.40;;;19.00;99.90;;;;;;5445030;26;20233;-80
2024/05/02 02:37:46;;;;;;;11.57;8.40;;;19.00;99.90;;;;;;5410440;26;20786;-80
2024/05/02 02:40:11;;;;;;;9.90;8.00;;;18.90;99.90;;;;;;5443462;26;20335;-80
2024/05/02 02:42:38;;;;;;;12.17;8.37;;;18.80;99.90;;;;;;5409557;26;20715;-81
2024/05/02 02:45:04;;;;;;;13.93;8.53;;;18.80;99.90;;;;;;5439686;26;20303;-81
2024/05/02 02:47:30;;;;;;;13.23;7.90;;;18.70;99.90;;;;;;5408401;26;20245;-80
2024/05/02 02:49:55;;;;;;;12.30;8.23;;;18.70;99.90;;;;;;5446921;26;20230;-79
2024/05/02 02:52:21;;;;;;;12.43;7.90;;;18.60;99.90;;;;;;5446388;26;20266;-81
2024/05/02 02:54:47;;;;;;;11.73;7.87;;;18.50;99.90;;;;;;5450732;26;20324;-81
2024/05/02 02:57:13;;;;;;;10.63;7.80;;;18.50;99.90;;;;;;5450332;26;20743;-78
2024/05/02 02:59:39;;;;;;;10.13;7.37;;;18.40;99.90;;;;;;5450756;26;20240;-80
2024/05/02 03:02:05;;;;;;;13.70;7.40;;;18.50;99.90;;;;;;5449183;26;20237;-80
2024/05/02 03:04:30;;;;;;;9.83;6.77;;;18.40;99.90;;;;;;5449002;26;20767;-82
2024/05/02 03:06:56;;;;;;;14.63;6.93;;;18.30;99.90;;;;;;5448255;26;20662;-79
2024/05/02 03:09:21;;;;;;;7.60;6.80;;;18.20;99.90;;;;;;5411137;26;20277;-79
2024/05/02 03:11:47;;;;;;;9.37;6.70;;;18.10;99.90;;;;;;5427749;26;20617;-82
2024/05/02 03:14:12;;;;;;;9.70;6.07;;;18.10;99.90;;;;;;5416608;26;20275;-81
2024/05/02 03:16:38;;;;;;;11.87;6.77;;;18.10;99.90;;;;;;5412868;26;20237;-79
2024/05/02 03:19:03;;;;;;;10.17;6.63;;;18.20;99.90;;;;;;5443096;26;20297;-80
2024/05/02 03:21:29;;;;;;;8.17;6.57;;;18.20;99.90;;;;;;5411338;26;20237;-80
2024/05/02 03:23:54;;;;;;;13.50;7.07;;;18.20;99.90;;;;;;5410572;26;20281;-81
2024/05/02 03:26:20;;;;;;;14.07;6.73;;;18.30;99.90;;;;;;5446556;26;20405;-80
2024/05/02 03:28:46;;;;;;;9.47;6.83;;;18.20;99.90;;;;;;5411564;26;20245;-78
2024/05/02 03:31:16;;;;;;;10.33;6.60;;;18.10;99.90;;;;;;5453356;26;20264;-79
2024/05/02 03:33:42;;;;;;;10.53;6.90;;;18.10;99.90;;;;;;5414727;26;20239;-79
2024/05/02 03:36:07;;;;;;;7.87;6.30;;;18.10;99.90;;;;;;5447421;26;20283;-81
2024/05/02 03:38:33;;;;;;;12.37;6.70;;;18.10;99.90;;;;;;5447967;26;20778;-81
2024/05/02 03:40:58;;;;;;;9.73;6.53;;;18.10;99.90;;;;;;5412485;26;20245;-81
2024/05/02 03:43:25;;;;;;;7.47;6.13;;;18.00;99.90;;;;;;5443867;26;20622;-81
2024/05/02 03:45:50;;;;;;;7.67;6.03;;;18.10;99.90;;;;;;5464732;26;20216;-81
2024/05/02 03:48:18;;;;;;;11.13;6.03;;;18.10;99.90;;;;;;5455471;26;20274;-81
2024/05/02 03:50:43;;;;;;;10.33;5.90;;;18.10;99.90;;;;;;5446920;26;20325;-81
2024/05/02 03:53:09;;;;;;;10.37;6.47;;;18.00;99.90;;;;;;5412280;26;20256;-80
2024/05/02 03:55:34;;;;;;;10.17;6.13;;;17.90;99.90;;;;;;5445670;26;20344;-80
2024/05/02 03:58:02;;;;;;;12.37;6.33;;;18.00;99.90;;;;;;5411383;26;20249;-81
2024/05/02 04:00:28;;;;;;;7.53;5.17;;;17.90;99.90;;;;;;5446103;26;20243;-82
2024/05/02 04:02:53;;;;;;;12.80;5.73;;;17.90;99.90;;;;;;5445874;26;20576;-80
2024/05/02 04:05:19;;;;;;;10.40;5.93;;;17.80;99.90;;;;;;5433653;26;20725;-80
2024/05/02 04:07:45;;;;;;;6.97;5.87;;;17.90;99.90;;;;;;5447133;26;20775;-80
2024/05/02 04:10:11;;;;;;;10.03;6.10;;;17.80;99.90;;;;;;5448656;26;20275;-79
2024/05/02 04:12:36;;;;;;;14.73;6.30;;;17.70;99.90;;;;;;5417836;26;20242;-80
2024/05/02 04:15:02;;;;;;;8.13;5.70;;;17.60;99.90;;;;;;5443344;26;20259;-80
2024/05/02 04:17:27;;;;;;;8.70;6.00;;;17.60;99.90;;;;;;5446950;26;20244;-81
2024/05/02 04:19:53;;;;;;;7.73;5.80;;;17.60;99.90;;;;;;5446129;26;20244;-81
2024/05/02 04:22:18;;;;;;;6.57;5.97;;;17.60;99.90;;;;;;5413351;26;20288;-82
2024/05/02 04:24:44;;;;;;;6.70;5.37;;;17.60;99.90;;;;;;5444653;26;20278;-80
2024/05/02 04:27:11;;;;;;;8.30;5.90;;;17.60;99.90;;;;;;5448198;26;20240;-81
2024/05/02 04:29:36;;;;;;;8.93;5.33;;;17.60;99.90;;;;;;5448034;26;20243;-81
2024/05/02 04:32:02;;;;;;;9.47;6.17;;;17.60;99.90;;;;;;5446016;26;20266;-81
2024/05/02 04:34:27;;;;;;;6.83;5.67;;;17.60;99.90;;;;;;5411405;26;20239;-81
2024/05/02 04:36:53;;;;;;;7.73;5.50;;;17.60;99.90;;;;;;5447131;26;20243;-81
2024/05/02 04:39:18;;;;;;;8.43;5.30;;;17.60;99.90;;;;;;5411979;26;20246;-82
2024/05/02 04:41:44;;;;;;;8.37;5.70;;;17.50;99.90;;;;;;5445074;26;20916;-81
2024/05/02 04:44:10;;;;;;;7.30;5.43;;;17.60;99.90;;;;;;5408072;26;20307;-81
2024/05/02 04:46:35;;;;;;;8.90;6.00;;;17.60;99.90;;;;;;5412113;26;20240;-81
2024/05/02 04:49:01;;;;;;;10.43;7.30;;;17.60;99.90;;;;;;5444637;26;20266;-81
2024/05/02 04:51:27;;;;;;;10.17;6.33;;;17.70;99.90;;;;;;5449417;26;20796;-81
2024/05/02 04:53:53;;;;;;;7.53;5.40;;;17.70;99.90;;;;;;5452048;26;20236;-80
2024/05/02 04:56:18;;;;;;;6.67;5.53;;;17.70;99.90;;;;;;5455913;26;20236;-80
2024/05/02 04:58:44;;;;;;;8.13;6.00;;;17.80;99.90;;;;;;5421545;26;20291;-80
2024/05/02 05:01:09;;;;;;;6.97;5.23;;;17.80;99.90;;;;;;5449807;26;20241;-80
2024/05/02 05:03:35;;;;;;;9.17;5.67;;;17.90;99.90;;;;;;5415613;26;20264;-79
2024/05/02 05:06:00;;;;;;;8.50;5.73;;;17.90;99.90;;;;;;5412418;26;20279;-79
2024/05/02 05:08:26;;;;;;;8.83;5.47;;;17.90;99.90;;;;;;5444158;26;20247;-80
2024/05/02 05:10:51;;;;;;;9.13;5.53;;;17.90;99.90;;;;;;5447789;26;20341;-81
2024/05/02 05:13:19;;;;;;;9.27;6.23;;;18.00;99.90;;;;;;5445601;26;20553;-81
2024/05/02 05:15:48;;;;;;;8.03;6.10;;;18.00;99.90;;;;;;5445707;26;20286;-81
2024/05/02 05:18:14;;;;;;;10.53;5.80;;;18.00;99.90;;;;;;5446429;26;20252;-80
2024/05/02 05:20:40;;;;;;;7.47;5.77;;;18.10;99.90;;;;;;5412970;26;20631;-81
2024/05/02 05:23:08;;;;;;;9.10;6.37;;;18.20;99.90;;;;;;5463878;26;20232;-81
2024/05/02 05:25:33;;;;;;;13.37;6.20;;;18.20;99.90;;;;;;5447320;26;20307;-79
2024/05/02 05:28:00;;;;;;;14.83;6.90;;;18.20;99.90;;;;;;5419554;26;20253;-81
2024/05/02 05:30:26;;;;;;;6.57;5.73;;;18.20;99.90;;;;;;5411468;26;20510;-82
2024/05/02 05:32:51;;;;;;;11.03;6.23;;;18.20;99.90;;;;;;5446145;26;20278;-80
2024/05/02 05:35:17;;;;;;;13.80;6.73;;;18.20;99.90;;;;;;5446833;26;20340;-81
2024/05/02 05:37:43;;;;;;;13.90;6.23;;;18.20;99.90;;;;;;5446177;26;20344;-81
2024/05/02 05:40:09;;;;;;;9.13;6.37;;;18.30;99.90;;;;;;5433731;26;20281;-81
2024/05/02 05:42:34;;;;;;;9.07;6.30;;;18.30;99.90;;;;;;5409587;26;20260;-81
2024/05/02 05:45:00;;;;;;;8.60;5.90;;;18.40;99.90;;;;;;5439620;26;20236;-80
2024/05/02 05:47:26;;;;;;;9.17;6.50;;;18.50;99.90;;;;;;5443076;26;20826;-80
2024/05/02 05:49:51;;;;;;;10.77;6.50;;;18.50;99.90;;;;;;5418974;26;20252;-80
2024/05/02 05:52:17;;;;;;;11.00;6.23;;;18.60;99.90;;;;;;5445014;26;20240;-82
2024/05/02 05:54:42;;;;;;;10.27;6.53;;;18.70;99.90;;;;;;5443752;26;20244;-81
2024/05/02 05:57:08;;;;;;;15.13;7.10;;;18.70;99.90;;;;;;5444742;26;20267;-81
2024/05/02 05:59:33;;;;;;;9.93;6.13;;;18.70;99.90;;;;;;5446718;26;20240;-79
2024/05/02 06:01:59;;;;;;;11.23;6.00;;;18.80;99.90;;;;;;5445022;26;20672;-81
2024/05/02 06:04:25;;;;;;;12.27;5.93;;;18.80;99.90;;;;;;5410680;26;20268;-80
2024/05/02 06:06:50;;;;;;;12.53;6.03;;;18.90;99.90;;;;;;5408827;26;20260;-82
2024/05/02 06:09:16;;;;;;;9.20;5.40;;;19.00;99.90;;;;;;5408526;26;20578;-81
2024/05/02 06:11:41;;;;;;;10.33;5.53;;;19.10;99.90;;;;;;5445337;26;20755;-81
2024/05/02 06:14:07;;;;;;;11.43;6.13;;;19.10;99.90;;;;;;5443554;26;20244;-81
2024/05/02 06:16:34;;;;;;;12.40;5.70;;;19.10;99.90;;;;;;5446381;26;20240;-81
2024/05/02 06:18:59;;;;;;;13.60;5.60;;;19.20;99.90;;;;;;5445249;26;20809;-80
2024/05/02 06:21:25;;;;;;;10.20;5.40;;;19.30;99.90;;;;;;5444215;26;20530;-81
2024/05/02 06:23:50;;;;;;;12.90;6.57;;;19.40;99.90;;;;;;5446946;26;20240;-81
2024/05/02 06:26:16;;;;;;;20.67;6.53;;;19.60;99.90;;;;;;5445933;26;20715;-81
2024/05/02 06:28:42;;;;;;;15.73;6.50;;;19.70;99.90;;;;;;5413172;26;20271;-80
2024/05/02 06:31:07;;;;;;;17.37;6.90;;;19.80;99.90;;;;;;5448171;26;20327;-81
2024/05/02 06:33:33;;;;;;;18.13;6.93;;;20.00;99.90;;;;;;5413243;26;20241;-81
2024/05/02 06:35:58;;;;;;;7.93;5.13;;;20.10;99.90;;;;;;5446825;26;20264;-82
2024/05/02 06:38:24;;;;;;;13.37;5.30;;;20.10;99.90;;;;;;5449328;26;20638;-81
2024/05/02 06:40:50;;;;;;;7.77;5.73;;;20.10;99.90;;;;;;5452246;26;20262;-81
2024/05/02 06:43:16;;;;;;;15.37;5.37;;;20.20;99.90;;;;;;5453064;26;20672;-81
2024/05/02 06:45:42;;;;;;;9.53;5.00;;;20.20;99.90;;;;;;5444011;26;20707;-81
2024/05/02 06:48:07;;;;;;;9.17;4.87;;;20.40;99.90;;;;;;5434380;26;20245;-81
2024/05/02 06:50:33;;;;;;;14.27;4.80;;;20.50;99.90;;;;;;5431838;26;20236;-81
2024/05/02 06:52:58;;;;;;;7.67;4.70;;;20.40;99.90;;;;;;5447471;26;20288;-80
2024/05/02 06:55:24;;;;;;;5.97;4.27;;;20.50;99.90;;;;;;5413978;26;20241;-81
2024/05/02 06:57:49;;;;;;;6.57;4.33;;;20.50;99.90;;;;;;5451046;26;20313;-80
2024/05/02 07:00:15;;;;;;;9.00;4.47;;;20.50;99.90;;;;;;5413630;26;20744;-82
2024/05/02 07:02:40;;;;;;;13.03;4.50;;;20.60;99.90;;;;;;5460438;26;20825;-82
2024/05/02 07:05:06;;;;;;;7.37;4.47;;;20.70;99.90;;;;;;5457253;26;20240;-81
2024/05/02 07:07:32;;;;;;;10.30;4.73;;;20.60;99.90;;;;;;5447603;26;20621;-80
2024/05/02 07:09:57;;;;;;;10.83;5.10;;;20.70;99.90;;;;;;5448712;26;20240;-82
2024/05/02 07:12:23;;;;;;;9.87;4.87;;;20.80;99.90;;;;;;5448203;26;20351;-81
2024/05/02 07:14:48;;;;;;;8.73;4.20;;;20.90;99.30;;;;;;5447566;26;20329;-82
2024/05/02 07:17:14;;;;;;;14.37;4.30;;;20.90;99.00;;;;;;5447116;26;20248;-81
2024/05/02 07:19:39;;;;;;;14.20;4.40;;;21.00;98.90;;;;;;5447317;26;20654;-81
2024/05/02 07:22:05;;;;;;;8.00;4.20;;;21.00;98.30;;;;;;5411617;26;20245;-80
2024/05/02 07:24:30;;;;;;;10.40;4.90;;;21.10;98.40;;;;;;5411054;26;20753;-80
2024/05/02 07:26:56;;;;;;;8.03;4.57;;;21.20;98.60;;;;;;5454253;26;20240;-80
2024/05/02 07:29:22;;;;;;;11.77;4.20;;;21.40;98.60;;;;;;5417335;26;20346;-81
2024/05/02 07:31:47;;;;;;;9.03;4.43;;;21.40;98.70;;;;;;5445652;26;20275;-80
2024/05/02 07:34:14;;;;;;;7.53;4.53;;;21.50;98.70;;;;;;5411881;26;20250;-81
2024/05/02 07:36:40;;;;;;;5.40;4.40;;;21.50;98.20;;;;;;5448051;26;20279;-82
2024/05/02 07:39:06;;;;;;;6.13;4.00;;;21.50;98.10;;;;;;5411818;26;20245;-83
2024/05/02 07:41:31;;;;;;;6.50;4.10;;;21.70;98.00;;;;;;5446687;26;20762;-80
2024/05/02 07:43:58;;;;;;;8.37;4.00;;;21.80;97.80;;;;;;5443285;26;20287;-82
2024/05/02 07:46:23;;;;;;;7.77;4.27;;;21.90;97.30;;;;;;5447749;26;20263;-80
2024/05/02 07:48:49;;;;;;;10.87;5.00;;;22.10;97.00;;;;;;5446926;26;20239;-81
2024/05/02 07:51:15;;;;;;;17.60;5.20;;;22.30;96.80;;;;;;5445990;26;20255;-80
2024/05/02 07:53:41;;;;;;;14.60;5.03;;;22.40;96.50;;;;;;5448145;26;20236;-81
2024/05/02 07:56:07;;;;;;;8.70;4.17;;;22.50;96.40;;;;;;5447776;26;20240;-80
2024/05/02 07:58:32;;;;;;;9.07;4.57;;;22.60;96.20;;;;;;5448346;26;20344;-82
2024/05/02 08:00:58;;;;;;;10.13;4.07;;;22.70;95.90;;;;;;5448281;26;20249;-81
2024/05/02 08:03:24;;;;;;;10.07;4.10;;;22.80;95.80;;;;;;5413520;26;20245;-80
2024/05/02 08:05:49;;;;;;;7.03;4.07;;;22.80;95.60;;;;;;5447175;26;20233;-81
2024/05/02 08:08:15;;;;;;;12.00;4.43;;;22.80;95.60;;;;;;5447649;26;20262;-83
2024/05/02 08:10:40;;;;;;;7.37;3.87;;;23.00;95.70;;;;;;5450840;26;20291;-83
2024/05/02 08:13:12;;;;;;;10.07;3.77;;;23.10;95.90;;;;;;5449399;26;20308;-82
2024/05/02 08:15:38;;;;;;;6.37;4.43;;;23.10;95.40;;;;;;5446610;26;20522;-81
2024/05/02 08:18:05;;;;;;;13.77;9.50;;;23.20;95.30;;;;;;5446583;26;20795;-81
2024/05/02 08:20:30;;;;;;;7.97;4.73;;;23.20;95.20;;;;;;5444933;26;20244;-81
2024/05/02 08:22:56;;;;;;;5.13;3.90;;;23.20;95.00;;;;;;5447545;26;20276;-82
2024/05/02 08:25:21;;;;;;;11.10;3.97;;;23.40;94.80;;;;;;5447501;26;20236;-82
2024/05/02 08:27:47;;;;;;;10.03;3.80;;;23.50;94.70;;;;;;5447409;26;20224;-81
2024/05/02 08:30:13;;;;;;;8.03;4.27;;;23.60;94.60;;;;;;5447883;26;20248;-82
2024/05/02 08:32:38;;;;;;;6.07;3.77;;;23.50;94.80;;;;;;5448568;26;20252;-83
2024/05/02 08:35:04;;;;;;;9.23;4.40;;;23.70;95.00;;;;;;5445244;26;20362;-80
2024/05/02 08:37:29;;;;;;;5.67;3.93;;;23.70;94.60;;;;;;5447503;26;20263;-82
2024/05/02 08:39:55;;;;;;;7.97;3.57;;;23.80;94.50;;;;;;5447011;26;20306;-79
2024/05/02 08:42:21;;;;;;;10.50;3.70;;;23.80;94.50;;;;;;5447472;26;20301;-81
2024/05/02 08:44:48;;;;;;;5.03;4.10;;;23.90;94.40;;;;;;5444426;26;20785;-82
2024/05/02 08:47:15;;;;;;;10.17;4.30;;;24.00;94.20;;;;;;5447448;26;20236;-83
2024/05/02 08:49:41;;;;;;;7.87;4.10;;;24.00;94.20;;;;;;5446553;26;20345;-81
2024/05/02 08:52:07;;;;;;;6.83;3.60;;;24.10;94.10;;;;;;5449668;26;20359;-84
2024/05/02 08:54:34;;;;;;;6.00;4.07;;;24.10;93.70;;;;;;5446203;26;20424;-81
2024/05/02 08:57:02;;;;;;;7.77;4.30;;;24.20;93.40;;;;;;5446935;26;20236;-81
2024/05/02 08:59:28;;;;;;;4.47;3.17;;;24.20;93.50;;;;;;5445990;26;20244;-80
2024/05/02 09:01:54;;;;;;;4.17;3.77;;;24.10;93.40;;;;;;5409863;26;20237;-82
2024/05/02 09:04:21;;;;;;;5.23;3.60;;;24.20;93.60;;;;;;5445928;26;20732;-79
2024/05/02 09:06:50;;;;;;;8.63;5.67;;;24.20;93.50;;;;;;5447634;26;20282;-81
2024/05/02 09:09:16;;;;;;;5.57;3.70;;;24.30;93.50;;;;;;5446747;26;20244;-80
2024/05/02 09:11:52;;;;;;;5.53;4.17;;;24.40;93.10;;;;;;5428627;26;20265;-81
2024/05/02 09:14:20;;;;;;;5.27;4.10;;;24.40;93.40;;;;;;5435901;26;20245;-82
2024/05/02 09:16:45;;;;;;;5.03;3.87;;;24.50;93.30;;;;;;5411030;26;20332;-81
2024/05/02 09:19:12;;;;;;;7.57;3.80;;;24.50;92.60;;;;;;5446380;26;20252;-80
2024/05/02 09:21:37;;;;;;;10.73;4.07;;;24.50;92.70;;;;;;5447266;26;20794;-81
2024/05/02 09:24:03;;;;;;;9.70;3.90;;;24.50;92.90;;;;;;5410581;26;20279;-80
2024/05/02 09:26:30;;;;;;;10.43;4.03;;;24.50;93.00;;;;;;5443725;26;20322;-81
2024/05/02 09:29:05;;;;;;;11.80;4.43;;;24.40;92.60;;;;;;5409557;26;20315;-80
2024/05/02 09:31:31;;;;;;;7.03;4.23;;;24.60;92.70;;;;;;5446278;26;20251;-81
2024/05/02 09:33:57;;;;;;;5.27;3.93;;;24.50;93.10;;;;;;5409831;26;20267;-81
2024/05/02 09:36:28;;;;;;;6.73;3.93;;;24.30;92.80;;;;;;5446543;26;20284;-82
2024/05/02 09:39:01;;;;;;;6.20;3.73;;;24.20;92.90;;;;;;5447399;26;20308;-81
2024/05/02 09:41:28;;;;;;;6.60;3.90;;;24.10;93.00;;;;;;5408731;26;20513;-81
2024/05/02 09:44:00;;;;;;;3.97;3.53;;;24.20;93.20;;;;;;5427190;26;20327;-81
2024/05/02 09:46:26;;;;;;;7.60;4.37;;;24.30;93.50;;;;;;5408566;26;20336;-80
2024/05/02 09:48:57;;;;;;;7.90;4.30;;;24.40;93.50;;;;;;5441194;26;20280;-81
2024/05/02 09:51:25;;;;;;;6.30;3.77;;;24.50;92.80;;;;;;5410550;26;20904;-82
2024/05/02 09:53:51;;;;;;;6.77;3.93;;;24.60;92.70;;;;;;5408728;26;20241;-82
2024/05/02 09:56:17;;;;;;;5.57;4.03;;;24.50;92.80;;;;;;5443379;26;20248;-82
2024/05/02 09:58:46;;;;;;;5.70;3.70;;;24.60;93.40;;;;;;5443800;26;20297;-83
2024/05/02 10:01:14;;;;;;;9.77;4.37;;;24.70;92.90;;;;;;5409554;26;20242;-82
2024/05/02 10:03:40;;;;;;;10.07;3.77;;;24.80;92.50;;;;;;5449187;26;20345;-82
2024/05/02 10:06:06;;;;;;;9.00;4.10;;;24.80;93.00;;;;;;5412025;26;20862;-80
2024/05/02 10:08:39;;;;;;;7.30;3.77;;;24.70;92.30;;;;;;5447627;26;20332;-80
2024/05/02 10:11:13;;;;;;;11.57;3.93;;;24.80;92.50;;;;;;5419740;26;20587;-80
2024/05/02 10:13:56;;;;;;;9.53;4.20;;;24.90;92.70;;;;;;5448063;26;20235;-82
2024/05/02 10:16:24;;;;;;;10.37;6.27;;;25.00;93.00;;;;;;5413767;26;20739;-81
2024/05/02 10:18:51;;;;;;;4.50;3.90;;;25.00;91.90;;;;;;5425891;26;20341;-82
2024/05/02 10:21:22;;;;;;;7.20;4.20;;;25.00;93.00;;;;;;5457925;26;20244;-81
2024/05/02 10:23:47;;;;;;;5.33;3.40;;;25.10;92.20;;;;;;5452497;26;20240;-80
2024/05/02 10:26:13;;;;;;;6.50;4.30;;;25.20;92.50;;;;;;5447204;26;20270;-81
2024/05/02 10:28:39;;;;;;;7.33;4.40;;;25.20;92.20;;;;;;5412781;26;20271;-82
2024/05/02 10:31:08;;;;;;;4.87;3.77;;;25.20;92.10;;;;;;5447331;26;20751;-79
2024/05/02 10:33:36;;;;;;;6.23;4.03;;;25.20;91.60;;;;;;5448568;26;20621;-81
2024/05/02 10:36:14;;;;;;;9.60;4.20;;;25.20;92.00;;;;;;5441149;26;20248;-81
2024/05/02 10:38:46;;;;;;;7.57;3.90;;;25.20;93.10;;;;;;5410268;26;20264;-80
2024/05/02 10:41:12;;;;;;;6.70;4.03;;;25.10;92.00;;;;;;5410143;26;20225;-80
2024/05/02 10:43:37;;;;;;;6.33;4.60;;;25.20;92.70;;;;;;5444655;26;20283;-82
2024/05/02 10:46:04;;;;;;;6.50;3.93;;;25.30;93.10;;;;;;5445013;26;20224;-82
2024/05/02 10:48:29;;;;;;;9.47;4.80;;;25.40;93.00;;;;;;5445670;26;20295;-80
2024/05/02 10:50:56;;;;;;;6.33;3.87;;;25.50;92.80;;;;;;5448223;26;20650;-80
2024/05/02 10:53:22;;;;;;;9.03;4.47;;;25.50;92.30;;;;;;5446813;26;20275;-81
2024/05/02 10:55:49;;;;;;;9.83;4.37;;;25.50;92.50;;;;;;5422425;26;20276;-80
2024/05/02 10:58:15;;;;;;;7.20;5.30;;;25.50;92.40;;;;;;5445834;26;20570;-82
2024/05/02 11:00:41;;;;;;;8.83;4.87;;;25.60;92.20;;;;;;5425757;26;20337;-80
2024/05/02 11:03:07;;;;;;;5.00;4.43;;;25.50;92.00;;;;;;5445805;26;20275;-81
2024/05/02 11:05:37;;;;;;;5.93;4.13;;;25.50;92.00;;;;;;5446502;26;20279;-81
2024/05/02 11:08:03;;;;;;;5.73;4.17;;;25.50;91.90;;;;;;5448797;26;20248;-83
2024/05/02 11:10:28;;;;;;;6.03;4.20;;;25.40;91.50;;;;;;5446319;26;20248;-81
2024/05/02 11:12:54;;;;;;;10.07;4.70;;;25.40;91.50;;;;;;5410506;26;20781;-81
2024/05/02 11:15:23;;;;;;;9.50;4.30;;;25.50;91.80;;;;;;5437814;26;20714;-81
2024/05/02 11:17:49;;;;;;;24.73;6.20;;;25.60;91.80;;;;;;5416633;26;20236;-80
2024/05/02 11:20:14;;;;;;;9.20;5.27;;;25.70;92.00;;;;;;5455018;26;20302;-81
2024/05/02 11:22:43;;;;;;;8.80;4.87;;;25.80;92.00;;;;;;5428110;26;20253;-81
2024/05/02 11:25:13;;;;;;;11.47;4.67;;;25.90;91.90;;;;;;5457981;26;20287;-81
2024/05/02 11:27:48;;;;;;;10.27;4.67;;;25.90;91.90;;;;;;5412114;26;20245;-83
2024/05/02 11:30:14;;;;;;;5.70;4.70;;;26.00;92.30;;;;;;5444579;26;20719;-81
2024/05/02 11:32:41;;;;;;;15.67;5.30;;;26.10;92.30;;;;;;5446208;26;20236;-81
2024/05/02 11:35:07;;;;;;;8.73;5.10;;;26.20;92.00;;;;;;5448160;26;20746;-81
2024/05/02 11:37:36;;;;;;;7.37;4.90;;;26.20;91.80;;;;;;5447923;26;20247;-81
2024/05/02 11:40:01;;;;;;;9.43;4.77;;;26.20;92.10;;;;;;5448249;26;20275;-80
2024/05/02 11:42:27;;;;;;;6.60;4.53;;;26.10;91.60;;;;;;5445651;26;20244;-81
2024/05/02 11:44:52;;;;;;;12.07;4.77;;;26.10;91.60;;;;;;5415220;26;20273;-82
2024/05/02 11:47:18;;;;;;;7.43;4.80;;;26.30;92.00;;;;;;5446055;26;20696;-82
2024/05/02 11:49:44;;;;;;;7.23;4.83;;;26.30;91.70;;;;;;5410614;26;20938;-82
2024/05/02 11:52:09;;;;;;;7.10;4.70;;;26.30;91.80;;;;;;5412052;26;20237;-82
2024/05/02 11:54:35;;;;;;;6.87;4.70;;;26.30;91.30;;;;;;5413430;26;20233;-80
2024/05/02 11:57:01;;;;;;;8.40;5.03;;;26.30;91.40;;;;;;5454599;26;20244;-80
2024/05/02 11:59:26;;;;;;;8.00;4.90;;;26.30;92.00;;;;;;5425288;26;20271;-81
2024/05/02 12:01:52;;;;;;;5.00;4.50;;;26.30;91.80;;;;;;5456458;26;20240;-82
2024/05/02 12:04:18;;;;;;;8.83;5.27;;;26.30;91.70;;;;;;5412271;26;20300;-80
2024/05/02 12:06:43;;;;;;;10.55;5.10;;;26.40;91.90;;;;;;5411280;26;20729;-82
2024/05/02 12:09:09;;;;;;;11.15;4.82;;;26.20;91.40;;;;;;5447112;26;20244;-80
2024/05/02 12:11:35;;;;;;;13.20;5.25;;;26.20;91.70;;;;;;5448171;26;20283;-80
2024/05/02 12:14:02;;;;;;;15.60;5.00;;;26.30;91.80;;;;;;5444078;26;20598;-80
2024/05/02 12:16:28;;;;;;;8.02;5.47;;;26.40;91.60;;;;;;5445332;26;20774;-80
2024/05/02 12:18:54;;;;;;;14.35;5.15;;;26.40;91.70;;;;;;5423674;26;20288;-82
2024/05/02 12:21:20;;;;;;;5.55;4.57;;;26.40;91.30;;;;;;5442798;26;20286;-81
2024/05/02 12:23:45;;;;;;;5.85;5.25;;;26.40;91.50;;;;;;5445726;26;20304;-81
2024/05/02 12:26:11;;;;;;;6.15;4.40;;;26.30;91.20;;;;;;5409524;26;20245;-82
2024/05/02 12:28:37;;;;;;;8.10;4.87;;;26.20;91.00;;;;;;5446128;26;20240;-81
2024/05/02 12:31:03;;;;;;;11.37;5.30;;;26.20;91.30;;;;;;5412337;26;20280;-81
2024/05/02 12:33:29;;;;;;;9.07;5.10;;;26.30;91.30;;;;;;5410014;26;20635;-81
2024/05/02 12:35:54;;;;;;;7.73;4.97;;;26.30;91.50;;;;;;5444053;26;20290;-82
2024/05/02 12:38:20;;;;;;;9.60;4.80;;;26.30;92.10;;;;;;5446654;26;20236;-81